Time;durP1;ratioP1;P1;durP2;ratioP2;P2;SDS_P1;SDS_P2;PMS_P1;PMS_P2;Temp;Humidity;BMP_temperature;BMP_pressure;BME280_temperature;BME280_humidity;BME280_pressure;Samples;Min_cycle;Max_cycle;Signal;HPM_P1;HPM_P2
2021/06/06 00:01:01;;;;;;;14.87;12.68;;;;;;;13.36;69.72;100625.08;1572481;88;25748;-52
2021/06/06 00:03:35;;;;;;;17.10;13.25;;;;;;;13.34;69.88;100619.73;1585102;88;25824;-53
2021/06/06 00:06:13;;;;;;;14.80;12.28;;;;;;;13.31;70.00;100621.13;1576827;89;26310;-54
2021/06/06 00:08:40;;;;;;;19.30;14.25;;;;;;;13.31;69.94;100621.70;1570488;88;25783;-52
2021/06/06 00:11:21;;;;;;;18.05;13.40;;;;;;;13.28;70.14;100616.36;1566570;90;27500;-53
2021/06/06 00:13:51;;;;;;;16.42;13.25;;;;;;;13.28;70.13;100613.64;1578217;89;25759;-53
2021/06/06 00:16:23;;;;;;;16.30;13.38;;;;;;;13.26;70.20;100620.75;1572674;89;25960;-54
2021/06/06 00:18:49;;;;;;;18.05;13.48;;;;;;;13.25;70.43;100612.92;1569224;89;26182;-52
2021/06/06 00:21:17;;;;;;;16.87;13.28;;;;;;;13.21;70.41;100616.02;1568388;89;25787;-53
2021/06/06 00:23:43;;;;;;;19.10;13.58;;;;;;;13.17;70.38;100613.70;1573764;89;27426;-54
2021/06/06 00:26:10;;;;;;;14.53;12.33;;;;;;;13.14;70.40;100614.34;1576408;89;25981;-54
2021/06/06 00:28:37;;;;;;;19.37;12.47;;;;;;;13.11;70.37;100619.86;1575289;89;25805;-55
2021/06/06 00:31:07;;;;;;;13.95;11.70;;;;;;;13.07;70.30;100614.81;1580014;88;26801;-54
2021/06/06 00:33:35;;;;;;;14.85;12.50;;;;;;;13.06;70.51;100610.52;1572055;89;25951;-54
2021/06/06 00:36:03;;;;;;;15.65;12.43;;;;;;;13.04;70.38;100612.19;1570676;89;27409;-55
2021/06/06 00:38:30;;;;;;;15.43;12.25;;;;;;;13.00;70.28;100605.77;1584358;89;25962;-54
2021/06/06 00:40:58;;;;;;;15.60;12.93;;;;;;;12.99;70.32;100606.09;1570639;88;26575;-53
2021/06/06 00:43:27;;;;;;;17.00;12.88;;;;;;;12.96;70.38;100602.67;1597305;88;26742;-54
2021/06/06 00:45:55;;;;;;;15.88;12.25;;;;;;;12.94;70.46;100607.06;1584495;88;26184;-54
2021/06/06 00:48:21;;;;;;;22.10;13.55;;;;;;;12.90;70.36;100611.51;1584131;88;27370;-54
2021/06/06 00:50:53;;;;;;;17.73;13.03;;;;;;;12.84;70.45;100606.80;1586905;88;25714;-54
2021/06/06 00:53:34;;;;;;;15.53;11.85;;;;;;;12.80;70.30;100613.16;1571293;88;26660;-52
2021/06/06 00:56:04;;;;;;;14.18;11.60;;;;;;;12.77;70.46;100606.47;1568493;89;26028;-53
2021/06/06 00:58:30;;;;;;;17.80;13.13;;;;;;;12.75;70.59;100602.45;1574432;88;25678;-54
2021/06/06 01:00:58;;;;;;;17.42;13.80;;;;;;;12.70;70.38;100603.39;1579641;88;27488;-53
2021/06/06 01:03:26;;;;;;;15.60;12.60;;;;;;;12.67;70.28;100600.77;1585207;88;26609;-54
2021/06/06 01:06:13;;;;;;;14.68;12.63;;;;;;;12.65;70.34;100601.64;1586097;88;26051;-54
2021/06/06 01:08:41;;;;;;;15.32;12.13;;;;;;;12.62;70.34;100599.55;1577258;88;26439;-54
2021/06/06 01:11:27;;;;;;;15.83;12.63;;;;;;;12.58;70.41;100597.23;1587209;88;25768;-53
2021/06/06 01:13:59;;;;;;;15.95;12.82;;;;;;;12.55;70.73;100597.86;1502751;93;27374;-53
2021/06/06 01:16:37;;;;;;;14.40;12.40;;;;;;;12.49;70.98;100595.83;1499875;93;25946;-53
2021/06/06 01:19:14;;;;;;;15.93;11.95;;;;;;;12.44;70.85;100593.83;1498154;93;25986;-53
2021/06/06 01:22:17;;;;;;;18.17;12.53;;;;;;;12.39;70.97;100589.34;1497119;93;26315;-54
2021/06/06 01:24:53;;;;;;;15.48;12.23;;;;;;;12.36;71.01;100589.16;1499496;94;25951;-53
2021/06/06 01:27:24;;;;;;;17.48;12.70;;;;;;;12.30;71.08;100590.66;1494576;94;27425;-54
2021/06/06 01:30:16;;;;;;;16.00;11.55;;;;;;;12.27;71.24;100583.14;1476867;95;26283;-53
2021/06/06 01:32:48;;;;;;;18.87;12.37;;;;;;;12.21;71.21;100589.84;1474541;96;26166;-52
2021/06/06 01:35:23;;;;;;;13.78;12.00;;;;;;;12.18;71.39;100597.23;1469200;96;26615;-52
2021/06/06 01:37:55;;;;;;;16.62;11.50;;;;;;;12.14;71.51;100599.77;1440900;97;26664;-54
2021/06/06 01:40:26;;;;;;;13.68;11.93;;;;;;;12.11;71.65;100601.75;1473693;96;28856;-51
2021/06/06 01:43:00;;;;;;;18.50;13.00;;;;;;;12.10;71.62;100605.56;1468210;96;26095;-52
2021/06/06 01:45:47;;;;;;;17.48;12.95;;;;;;;12.07;71.71;100604.03;1469097;95;25878;-51
2021/06/06 01:48:16;;;;;;;15.38;11.83;;;;;;;12.02;71.86;100600.92;1478648;95;25880;-53
2021/06/06 01:50:50;;;;;;;14.80;11.90;;;;;;;12.00;71.93;100603.11;1488124;93;25987;-52
2021/06/06 01:53:19;;;;;;;19.62;13.50;;;;;;;11.99;71.96;100608.88;1534813;91;27962;-52
2021/06/06 01:55:51;;;;;;;16.62;12.63;;;;;;;11.96;72.01;100606.22;1544567;91;25962;-51
2021/06/06 01:58:19;;;;;;;17.48;12.73;;;;;;;11.95;72.23;100606.78;1544429;91;25911;-53
2021/06/06 02:00:57;;;;;;;19.70;13.48;;;;;;;11.95;72.29;100610.84;1545505;90;25878;-50
2021/06/06 02:03:24;;;;;;;17.75;12.58;;;;;;;11.96;72.45;100608.92;1546016;90;25765;-53
2021/06/06 02:05:54;;;;;;;17.50;12.55;;;;;;;11.96;72.31;100611.06;1532904;91;28173;-53
2021/06/06 02:08:22;;;;;;;16.80;13.48;;;;;;;11.96;72.46;100606.22;1535946;91;25853;-53
2021/06/06 02:11:00;;;;;;;16.50;13.93;;;;;;;11.96;72.52;100605.65;1529177;91;25853;-51
2021/06/06 02:13:43;;;;;;;18.52;14.07;;;;;;;11.94;72.40;100607.88;1531215;91;26613;-52
2021/06/06 02:16:17;;;;;;;15.63;13.72;;;;;;;11.93;72.50;100605.47;1528037;91;25755;-53
2021/06/06 02:18:44;;;;;;;19.07;15.00;;;;;;;11.94;72.62;100604.38;1539739;91;27406;-52
2021/06/06 02:21:12;;;;;;;16.67;14.85;;;;;;;11.92;72.74;100602.53;1533887;92;26708;-52
2021/06/06 02:23:43;;;;;;;21.20;14.98;;;;;;;11.92;72.93;100609.31;1553984;90;26539;-52
2021/06/06 02:26:31;;;;;;;23.80;15.68;;;;;;;11.91;73.11;100609.84;1536019;91;26296;-52
2021/06/06 02:29:15;;;;;;;17.60;13.38;;;;;;;11.91;73.11;100603.63;1537555;91;25756;-54
2021/06/06 02:32:04;;;;;;;19.30;14.85;;;;;;;11.92;73.07;100604.69;1554936;90;26880;-53
2021/06/06 02:34:55;;;;;;;;;;;;;;;11.93;73.26;100606.27;1569758;90;25851;-52
2021/06/06 02:37:30;;;;;;;16.87;14.03;;;;;;;11.95;73.57;100608.66;1557939;89;25891;-50
2021/06/06 02:40:05;;;;;;;22.77;14.87;;;;;;;11.95;73.44;100610.84;1559207;90;25790;-53
2021/06/06 02:42:36;;;;;;;17.17;14.28;;;;;;;11.95;73.45;100610.84;1563312;90;25677;-53
2021/06/06 02:45:19;;;;;;;18.73;14.68;;;;;;;11.96;73.44;100605.65;1553658;90;27381;-53
2021/06/06 02:47:49;;;;;;;19.15;15.40;;;;;;;11.96;73.61;100603.50;1552097;90;27322;-52
2021/06/06 02:50:30;;;;;;;20.85;14.83;;;;;;;11.95;73.46;100608.13;1530694;91;25922;-51
2021/06/06 02:53:05;;;;;;;17.45;14.20;;;;;;;11.96;73.53;100606.22;1556664;90;25807;-51
2021/06/06 02:55:41;;;;;;;20.23;15.13;;;;;;;11.98;73.65;100606.70;1525501;91;26500;-52
2021/06/06 02:58:13;;;;;;;18.70;14.78;;;;;;;11.99;73.77;100602.89;1526886;91;27570;-53
2021/06/06 06:00:35;;;;;;;8.70;7.20;;;;;;;18.55;68.95;100637.73;1597873;84;25955;-66
2021/06/06 06:03:02;;;;;;;7.53;6.33;;;;;;;18.73;68.56;100638.72;1621562;86;26084;-65
2021/06/06 06:05:29;;;;;;;13.93;7.00;;;;;;;18.86;67.92;100638.88;1623243;86;26520;-62
2021/06/06 06:07:56;;;;;;;9.03;6.90;;;;;;;18.99;67.27;100640.34;1618875;86;27880;-66
2021/06/06 06:10:29;;;;;;;10.65;7.20;;;;;;;19.12;67.14;100634.18;1622545;86;25937;-66
2021/06/06 06:12:57;;;;;;;8.48;6.08;;;;;;;19.26;66.75;100633.69;1605481;86;27466;-65
2021/06/06 06:15:23;;;;;;;7.62;6.35;;;;;;;19.41;66.26;100629.30;1606139;86;25841;-65
2021/06/06 06:17:56;;;;;;;9.05;6.33;;;;;;;19.56;65.82;100631.73;1610089;86;26125;-65
2021/06/06 06:20:23;;;;;;;9.65;6.22;;;;;;;19.70;65.39;100627.91;1612235;86;26769;-64
2021/06/06 06:22:49;;;;;;;9.03;5.62;;;;;;;19.84;64.76;100630.73;1622431;85;25800;-65
2021/06/06 06:25:18;;;;;;;10.18;6.42;;;;;;;19.98;64.45;100636.48;1620879;86;27470;-58
2021/06/06 06:27:45;;;;;;;7.45;6.72;;;;;;;20.12;64.49;100631.23;1617363;85;25978;-57
2021/06/06 06:30:17;;;;;;;9.65;6.78;;;;;;;20.28;64.18;100640.73;1598174;86;25802;-57
2021/06/06 06:32:43;;;;;;;9.45;6.70;;;;;;;20.43;63.81;100639.59;1620428;86;25904;-58
2021/06/06 06:35:11;;;;;;;11.97;6.65;;;;;;;20.61;64.09;100642.05;1617041;86;25827;-58
2021/06/06 06:37:38;;;;;;;6.72;6.12;;;;;;;20.80;64.06;100637.64;1631572;85;27354;-58
2021/06/06 06:40:10;;;;;;;8.35;6.00;;;;;;;21.02;63.64;100645.03;1624655;86;25902;-57
2021/06/06 06:42:37;;;;;;;13.10;6.03;;;;;;;21.22;63.12;100636.06;1611800;86;25863;-59
2021/06/06 06:45:07;;;;;;;9.83;5.33;;;;;;;21.43;62.43;100642.41;1611915;86;26598;-58
2021/06/06 06:47:34;;;;;;;9.83;5.53;;;;;;;21.61;61.96;100637.75;1614545;86;25848;-58
2021/06/06 06:50:00;;;;;;;8.78;5.70;;;;;;;21.86;61.51;100646.27;1621836;86;27392;-58
2021/06/06 06:52:27;;;;;;;8.55;5.45;;;;;;;22.10;61.17;100648.27;1597352;87;26515;-59
2021/06/06 06:54:58;;;;;;;7.53;5.10;;;;;;;22.32;60.23;100654.23;1596753;87;25443;-57
2021/06/06 06:57:24;;;;;;;8.50;5.20;;;;;;;22.54;59.59;100649.69;1598077;87;25870;-58
2021/06/06 06:59:51;;;;;;;6.15;5.33;;;;;;;22.77;58.85;100650.64;1615099;86;25754;-59
2021/06/06 07:02:17;;;;;;;7.30;5.00;;;;;;;22.99;58.59;100642.69;1608808;86;27290;-59
2021/06/06 07:04:43;;;;;;;5.47;4.50;;;;;;;23.22;58.25;100652.69;1616585;87;25877;-58
2021/06/06 07:07:10;;;;;;;9.30;5.17;;;;;;;23.48;57.66;100651.03;1609556;87;25861;-58
2021/06/06 07:09:37;;;;;;;9.58;5.22;;;;;;;23.74;56.99;100654.66;1627893;85;27816;-57
2021/06/06 07:12:04;;;;;;;6.03;5.25;;;;;;;24.01;56.34;100647.46;1629235;86;25686;-59
2021/06/06 07:14:31;;;;;;;5.72;4.72;;;;;;;24.23;55.77;100649.06;1620930;86;27320;-59
2021/06/06 07:16:57;;;;;;;8.30;4.83;;;;;;;24.50;55.02;100654.20;1614376;86;25831;-57
2021/06/06 07:19:26;;;;;;;7.00;4.40;;;;;;;24.76;53.97;100653.01;1633170;85;25996;-58
2021/06/06 07:21:53;;;;;;;;;;;;;;;24.97;53.25;100648.02;1631815;86;25955;-59
2021/06/06 07:24:19;;;;;;;7.25;4.30;;;;;;;25.22;52.54;100654.69;1618469;86;25884;-58
2021/06/06 07:26:49;;;;;;;8.80;5.00;;;;;;;25.45;52.83;100650.84;1630315;86;27321;-59
2021/06/06 07:29:21;;;;;;;7.25;4.95;;;;;;;25.70;52.40;100649.95;1629015;86;25770;-58
2021/06/06 07:31:51;;;;;;;8.45;5.25;;;;;;;25.95;51.47;100646.25;1622013;86;25748;-58
2021/06/06 07:34:20;;;;;;;8.53;4.90;;;;;;;26.21;51.28;100639.35;1618246;86;25659;-66
2021/06/06 07:36:47;;;;;;;11.43;4.85;;;;;;;26.47;50.30;100644.26;1621328;86;27286;-57
2021/06/06 07:39:18;;;;;;;6.80;4.22;;;;;;;26.72;49.83;100650.22;1625709;86;27355;-64
2021/06/06 07:41:47;;;;;;;8.78;4.80;;;;;;;26.94;48.88;100643.07;1627843;86;25529;-63
2021/06/06 07:44:16;;;;;;;5.35;4.25;;;;;;;27.16;48.39;100643.61;1631881;86;25865;-58
2021/06/06 07:46:42;;;;;;;6.45;4.58;;;;;;;27.40;47.96;100647.31;1631440;86;25880;-64
2021/06/06 07:49:09;;;;;;;6.83;4.40;;;;;;;27.58;47.12;100646.48;1619458;86;25897;-59
2021/06/06 07:51:37;;;;;;;8.23;4.08;;;;;;;27.76;46.85;100648.99;1613784;86;27339;-64
2021/06/06 07:54:08;;;;;;;6.08;3.87;;;;;;;28.02;45.98;100646.66;1610782;87;26665;-65
2021/06/06 07:56:36;;;;;;;5.03;3.70;;;;;;;28.24;45.16;100644.33;1613729;87;25804;-58
2021/06/06 07:59:06;;;;;;;6.75;3.60;;;;;;;28.39;44.19;100642.71;1605644;87;25695;-59
2021/06/06 08:01:34;;;;;;;6.10;4.30;;;;;;;28.58;44.13;100639.83;1605460;87;25736;-64
2021/06/06 08:04:00;;;;;;;5.58;3.47;;;;;;;28.75;43.23;100635.92;1601479;87;28186;-58
2021/06/06 08:06:27;;;;;;;9.70;3.20;;;;;;;28.94;43.06;100634.37;1608248;87;25859;-65
2021/06/06 08:08:54;;;;;;;6.85;3.47;;;;;;;29.10;42.22;100635.66;1607439;87;25877;-64
2021/06/06 08:11:22;;;;;;;5.55;3.42;;;;;;;29.30;41.92;100638.47;1585491;87;27125;-65
2021/06/06 08:13:50;;;;;;;3.10;2.80;;;;;;;29.52;41.19;100638.80;1631215;85;25913;-65
2021/06/06 08:16:17;;;;;;;3.67;3.37;;;;;;;29.70;41.05;100638.41;1625289;86;27484;-66
2021/06/06 08:18:46;;;;;;;4.35;3.30;;;;;;;29.91;40.29;100635.76;1635997;86;25858;-66
2021/06/06 08:21:20;;;;;;;5.47;2.95;;;;;;;30.09;40.03;100636.12;1614933;87;25813;-64
2021/06/06 08:23:49;;;;;;;5.20;3.25;;;;;;;30.30;39.17;100636.19;1634590;85;25952;-63
2021/06/06 08:26:20;;;;;;;7.03;3.30;;;;;;;30.47;38.51;100637.60;1614079;86;26059;-63
2021/06/06 08:28:49;;;;;;;5.03;2.87;;;;;;;30.68;38.54;100639.03;1622049;85;27403;-65
2021/06/06 08:31:20;;;;;;;5.58;2.95;;;;;;;30.87;38.03;100646.50;1610529;87;25774;-64
2021/06/06 08:33:47;;;;;;;5.10;3.35;;;;;;;31.10;37.77;100641.91;1614760;86;26573;-64
2021/06/06 08:36:19;;;;;;;4.22;3.05;;;;;;;31.37;37.35;100645.70;1612514;86;25942;-64
2021/06/06 08:38:45;;;;;;;4.42;3.12;;;;;;;31.60;36.22;100643.27;1628537;86;25847;-65
2021/06/06 08:41:25;;;;;;;6.53;3.40;;;;;;;31.69;35.76;100638.99;1622389;86;27353;-65
2021/06/06 08:44:05;;;;;;;7.83;3.40;;;;;;;31.85;35.56;100644.48;1596515;87;25837;-65
2021/06/06 08:46:37;;;;;;;6.55;3.10;;;;;;;32.06;35.08;100637.43;1617288;87;25937;-65
2021/06/06 08:49:05;;;;;;;5.65;3.22;;;;;;;32.00;34.48;100637.81;1613713;85;25877;-65
2021/06/06 08:51:52;;;;;;;3.65;2.95;;;;;;;32.08;34.92;100633.59;1619997;86;25978;-64
2021/06/06 08:54:29;;;;;;;3.52;2.80;;;;;;;32.35;34.16;100638.69;1623116;86;27446;-64
2021/06/06 08:57:01;;;;;;;3.58;2.60;;;;;;;32.59;33.34;100625.68;1616441;86;25987;-65
2021/06/06 08:59:43;;;;;;;3.45;2.85;;;;;;;32.78;33.22;100624.43;1617735;86;25851;-66
2021/06/06 09:02:21;;;;;;;3.80;3.22;;;;;;;32.86;32.31;100629.34;1612859;86;26628;-65
2021/06/06 09:04:49;;;;;;;10.85;2.80;;;;;;;32.49;31.72;100631.03;1616629;86;25893;-68
2021/06/06 09:07:36;;;;;;;6.33;3.08;;;;;;;31.97;31.51;100633.89;1627522;86;29701;-66
2021/06/06 09:10:11;;;;;;;5.30;2.98;;;;;;;31.50;31.64;100633.19;1624636;85;25836;-66
2021/06/06 09:12:39;;;;;;;3.75;2.95;;;;;;;31.03;32.00;100628.92;1618393;86;26039;-66
2021/06/06 09:15:10;;;;;;;3.65;3.02;;;;;;;30.63;32.34;100625.02;1634944;86;26236;-65
2021/06/06 09:17:49;;;;;;;4.60;2.50;;;;;;;30.27;32.43;100626.52;1619474;86;26625;-66
2021/06/06 09:20:36;;;;;;;4.28;3.00;;;;;;;29.96;32.80;100617.89;1638987;86;27400;-65
2021/06/06 09:23:26;;;;;;;3.90;2.52;;;;;;;30.15;34.11;100617.65;1574660;88;25857;-65
2021/06/06 09:26:13;;;;;;;7.78;2.72;;;;;;;30.61;33.83;100614.89;1552043;90;25945;-65
2021/06/06 09:28:45;;;;;;;4.33;2.40;;;;;;;31.16;33.32;100616.40;1571934;87;26342;-65
2021/06/06 09:31:22;;;;;;;4.70;3.02;;;;;;;31.32;32.46;100614.75;1575307;88;26040;-67
2021/06/06 09:33:57;;;;;;;2.83;2.62;;;;;;;31.06;32.05;100619.66;1580334;88;27363;-66
2021/06/06 09:36:39;;;;;;;7.28;3.08;;;;;;;30.75;31.81;100615.14;1583691;87;26083;-64
2021/06/06 09:39:22;;;;;;;3.92;2.72;;;;;;;30.35;31.58;100611.97;1596447;87;26564;-63
2021/06/06 09:41:56;;;;;;;6.42;3.12;;;;;;;29.97;32.09;100612.50;1573894;89;25847;-64
2021/06/06 09:44:28;;;;;;;5.85;2.85;;;;;;;29.87;33.03;100603.00;1550797;89;25900;-59
2021/06/06 09:47:09;;;;;;;4.78;3.02;;;;;;;30.16;33.40;100609.44;1582177;88;27458;-53
2021/06/06 09:49:46;;;;;;;4.28;2.80;;;;;;;30.63;32.90;100610.27;1568983;89;25876;-55
2021/06/06 09:52:24;;;;;;;3.80;2.70;;;;;;;31.02;32.27;100602.23;1578600;88;26261;-54
2021/06/06 09:54:58;;;;;;;4.77;2.27;;;;;;;31.49;31.79;100598.05;1597021;87;27760;-54
2021/06/06 09:57:33;;;;;;;5.05;3.00;;;;;;;31.48;30.95;100599.27;1598457;87;25742;-55
2021/06/06 10:00:23;;;;;;;3.98;2.52;;;;;;;31.36;30.71;100586.84;1613029;86;27950;-55
2021/06/06 10:02:55;;;;;;;4.62;2.40;;;;;;;31.12;30.17;100591.19;1582958;89;26446;-55
2021/06/06 10:05:32;;;;;;;5.83;2.62;;;;;;;30.75;29.61;100594.20;1612741;87;25957;-55
2021/06/06 10:08:18;;;;;;;6.67;2.92;;;;;;;30.40;30.03;100595.94;1604201;87;25761;-55
2021/06/06 10:10:50;;;;;;;4.78;2.50;;;;;;;30.07;30.21;100596.73;1605085;87;25599;-54
2021/06/06 10:13:22;;;;;;;4.03;2.50;;;;;;;29.82;30.94;100595.16;1593308;89;27346;-55
2021/06/06 10:15:52;;;;;;;5.67;2.40;;;;;;;30.02;31.46;100588.09;1597900;88;26125;-55
2021/06/06 10:18:24;;;;;;;6.92;3.55;;;;;;;30.54;31.50;100581.59;1585764;87;25706;-53
2021/06/06 10:21:11;;;;;;;8.55;3.30;;;;;;;30.95;31.41;100582.87;1557448;90;25921;-55
2021/06/06 10:23:45;;;;;;;9.20;3.15;;;;;;;31.35;30.91;100581.73;1534905;90;26690;-56
2021/06/06 10:26:47;;;;;;;10.75;4.37;;;;;;;31.90;30.89;100588.61;1519282;92;28731;-54
2021/06/06 10:29:40;;;;;;;5.05;2.70;;;;;;;31.96;29.08;100584.80;1591553;87;26559;-55
2021/06/06 10:32:18;;;;;;;4.70;3.30;;;;;;;31.72;28.87;100587.77;1632608;86;25876;-55
2021/06/06 10:35:04;;;;;;;7.67;4.40;;;;;;;31.46;29.07;100586.36;1628221;85;26591;-55
2021/06/06 10:37:31;;;;;;;5.45;3.70;;;;;;;31.65;29.25;100579.00;1624180;86;25867;-53
2021/06/06 10:40:07;;;;;;;8.63;2.85;;;;;;;31.98;28.82;100582.33;1638554;85;27512;-55
2021/06/06 10:42:57;;;;;;;13.40;5.47;;;;;;;31.99;28.73;100572.71;1628759;86;25818;-52
2021/06/06 10:45:34;;;;;;;10.38;5.42;;;;;;;31.85;28.66;100577.36;1621566;86;26002;-53
2021/06/06 10:48:14;;;;;;;4.15;2.50;;;;;;;32.04;29.14;100579.73;1601292;87;25922;-53
2021/06/06 10:50:45;;;;;;;5.05;2.95;;;;;;;32.14;28.40;100580.02;1604898;87;26020;-53
2021/06/06 10:53:23;;;;;;;6.45;3.62;;;;;;;31.94;28.36;100578.08;1612255;87;27342;-54
2021/06/06 10:56:14;;;;;;;5.67;2.63;;;;;;;31.69;28.14;100583.88;1596323;87;25818;-55
2021/06/06 10:58:51;;;;;;;6.50;2.80;;;;;;;31.51;28.33;100573.25;1613831;87;26699;-54
2021/06/06 11:01:26;;;;;;;4.78;2.42;;;;;;;31.24;28.54;100576.45;1612178;87;25852;-52
2021/06/06 11:04:06;;;;;;;2.60;2.30;;;;;;;31.33;29.11;100569.59;1598024;87;25745;-53
2021/06/06 11:06:37;;;;;;;8.00;2.77;;;;;;;31.80;29.60;100576.53;1611918;87;29660;-55
2021/06/06 11:09:07;;;;;;;4.17;2.45;;;;;;;32.35;28.96;100568.72;1592528;88;26595;-51
2021/06/06 11:11:39;;;;;;;4.25;2.50;;;;;;;32.63;27.95;100567.55;1569391;87;25907;-49
2021/06/06 11:14:14;;;;;;;3.30;2.72;;;;;;;32.49;27.51;100563.86;1606657;86;27028;-52
2021/06/06 11:16:52;;;;;;;2.95;2.22;;;;;;;32.19;27.49;100561.88;1625231;86;26714;-51
2021/06/06 11:19:24;;;;;;;12.87;2.60;;;;;;;32.07;27.63;100562.70;1605950;86;27394;-52
2021/06/06 11:21:56;;;;;;;5.72;2.60;;;;;;;31.97;27.96;100563.97;1606676;86;26473;-53
2021/06/06 11:24:48;;;;;;;5.10;2.62;;;;;;;32.25;28.46;100561.48;1581222;88;26108;-61
2021/06/06 11:27:38;;;;;;;8.45;2.83;;;;;;;32.61;28.27;100555.23;1601122;86;25821;-60
2021/06/06 11:30:28;;;;;;;3.80;2.37;;;;;;;33.01;27.87;100550.37;1614450;86;25966;-60
2021/06/06 11:33:12;;;;;;;6.10;2.90;;;;;;;33.34;26.99;100545.72;1609967;86;27461;-62
2021/06/06 11:35:49;;;;;;;4.22;2.47;;;;;;;33.62;26.92;100543.17;1626345;86;25928;-62
2021/06/06 11:38:40;;;;;;;4.45;2.40;;;;;;;33.81;26.33;100551.03;1608081;86;25787;-61
2021/06/06 11:41:14;;;;;;;7.47;2.75;;;;;;;33.72;25.59;100545.41;1569388;87;26556;-51
2021/06/06 11:43:55;;;;;;;5.17;2.33;;;;;;;33.33;25.50;100539.34;1617270;86;26596;-52
2021/06/06 11:46:33;;;;;;;6.92;2.50;;;;;;;32.91;25.43;100534.12;1623271;86;27365;-51
2021/06/06 11:49:17;;;;;;;7.22;2.40;;;;;;;32.48;25.56;100534.29;1604619;87;26200;-52
2021/06/06 11:51:47;;;;;;;3.10;2.30;;;;;;;32.07;25.79;100529.14;1608613;87;26455;-53
2021/06/06 11:54:37;;;;;;;6.17;2.58;;;;;;;31.71;26.12;100533.11;1602338;87;26108;-52
2021/06/06 11:57:29;;;;;;;4.47;2.50;;;;;;;31.75;26.19;100525.37;1619771;87;25818;-60
2021/06/06 12:00:20;;;;;;;6.53;2.58;;;;;;;31.87;27.04;100528.75;1610673;87;27430;-60
2021/06/06 12:02:47;;;;;;;5.83;2.60;;;;;;;32.08;26.82;100518.89;1574603;89;25785;-61
2021/06/06 12:05:25;;;;;;;5.90;2.85;;;;;;;31.75;26.57;100522.58;1609254;87;25840;-59
2021/06/06 12:07:52;;;;;;;6.70;3.10;;;;;;;31.43;26.85;100527.16;1615830;86;26031;-61
2021/06/06 12:10:30;;;;;;;10.10;2.70;;;;;;;31.06;27.21;100533.70;1632898;86;26118;-60
2021/06/06 12:13:02;;;;;;;4.03;2.92;;;;;;;30.73;27.38;100536.60;1614867;86;28464;-61
2021/06/06 12:15:41;;;;;;;4.25;3.20;;;;;;;30.39;27.85;100533.75;1613562;87;25956;-62
2021/06/06 12:18:24;;;;;;;5.25;3.15;;;;;;;30.21;28.36;100530.03;1579257;89;25818;-61
2021/06/06 12:20:59;;;;;;;4.03;2.77;;;;;;;29.96;28.54;100531.45;1560498;90;25887;-61
2021/06/06 12:23:31;;;;;;;3.42;2.40;;;;;;;29.67;28.81;100532.74;1550276;90;26028;-60
2021/06/06 12:26:11;;;;;;;6.03;2.60;;;;;;;29.42;29.25;100530.55;1557164;90;27520;-61
2021/06/06 12:28:45;;;;;;;3.80;3.22;;;;;;;29.22;29.60;100536.19;1601277;88;25908;-60
2021/06/06 12:31:35;;;;;;;5.37;3.20;;;;;;;29.03;29.86;100534.95;1572629;88;26546;-59
2021/06/06 12:34:33;;;;;;;5.67;2.80;;;;;;;28.88;30.08;100537.27;1571674;89;26506;-60
2021/06/06 12:37:16;;;;;;;4.17;2.87;;;;;;;28.77;30.15;100532.53;1571533;88;25959;-50
2021/06/06 12:39:50;;;;;;;4.80;3.10;;;;;;;28.62;30.19;100534.22;1582345;88;27607;-50
2021/06/06 12:42:22;;;;;;;3.95;3.00;;;;;;;28.46;30.41;100525.75;1566708;90;25899;-60
2021/06/06 12:44:53;;;;;;;3.72;2.42;;;;;;;28.36;30.50;100530.91;1579010;89;25911;-62
2021/06/06 12:47:30;;;;;;;7.58;2.45;;;;;;;28.27;30.37;100531.47;1612769;87;26074;-62
2021/06/06 12:50:08;;;;;;;5.70;2.45;;;;;;;28.16;30.59;100526.08;1614121;87;25949;-62
2021/06/06 12:52:57;;;;;;;3.33;2.30;;;;;;;28.23;31.06;100524.59;1597380;87;27454;-61
2021/06/06 12:55:38;;;;;;;3.33;2.45;;;;;;;28.46;31.65;100522.35;1605877;87;25914;-61
2021/06/06 12:58:19;;;;;;;4.87;2.30;;;;;;;28.94;31.49;100528.58;1613209;85;26365;-62
2021/06/06 13:00:50;;;;;;;5.67;2.58;;;;;;;29.13;30.69;100525.58;1618342;86;26463;-61
2021/06/06 13:03:25;;;;;;;6.53;2.60;;;;;;;29.37;30.86;100513.75;1622992;86;26255;-62
2021/06/06 13:05:55;;;;;;;7.00;2.52;;;;;;;29.76;30.56;100516.80;1627943;86;27299;-61
2021/06/06 13:08:37;;;;;;;5.35;2.60;;;;;;;29.99;29.90;100512.45;1634505;86;25895;-62
2021/06/06 13:11:12;;;;;;;4.83;3.35;;;;;;;30.15;29.51;100520.62;1622241;85;26692;-53
2021/06/06 13:13:49;;;;;;;5.65;3.27;;;;;;;30.27;29.41;100516.33;1627864;86;26390;-53
2021/06/06 13:16:37;;;;;;;6.17;3.65;;;;;;;30.28;29.25;100523.48;1617953;86;26039;-54
2021/06/06 13:19:08;;;;;;;3.10;2.62;;;;;;;30.37;29.17;100517.30;1608781;87;28158;-50
2021/06/06 13:21:46;;;;;;;5.65;2.80;;;;;;;30.65;29.62;100518.48;1621328;86;25905;-54
2021/06/06 13:24:27;;;;;;;6.20;3.00;;;;;;;30.99;28.71;100526.91;1636035;85;25757;-53
2021/06/06 13:26:58;;;;;;;7.00;2.75;;;;;;;31.01;28.24;100517.50;1624456;86;25951;-53
2021/06/06 13:29:39;;;;;;;4.55;2.62;;;;;;;31.08;28.49;100513.86;1623148;85;26144;-55
2021/06/06 13:32:22;;;;;;;6.92;2.58;;;;;;;31.25;28.57;100515.94;1604233;87;27318;-54
2021/06/06 13:34:57;;;;;;;3.72;2.90;;;;;;;31.49;28.29;100518.39;1619092;86;25818;-54
2021/06/06 13:37:28;;;;;;;5.33;2.90;;;;;;;31.72;28.10;100512.29;1603814;86;25939;-53
2021/06/06 13:39:56;;;;;;;4.78;2.87;;;;;;;31.78;28.04;100507.08;1617997;86;26204;-53
2021/06/06 13:42:25;;;;;;;3.15;2.85;;;;;;;31.80;27.78;100510.20;1619382;86;25948;-53
2021/06/06 13:44:52;;;;;;;4.10;2.25;;;;;;;31.81;27.57;100508.20;1619776;86;27334;-53
2021/06/06 13:47:28;;;;;;;5.33;2.60;;;;;;;31.90;27.52;100508.91;1631499;86;25918;-52
2021/06/06 13:49:59;;;;;;;3.92;2.30;;;;;;;31.92;27.22;100514.20;1633030;86;25930;-54
2021/06/06 13:52:27;;;;;;;3.33;2.22;;;;;;;31.89;27.29;100510.93;1596921;87;25960;-53
2021/06/06 13:54:54;;;;;;;3.55;2.22;;;;;;;31.86;27.25;100510.42;1605596;87;25920;-53
2021/06/06 13:57:20;;;;;;;5.33;2.20;;;;;;;31.91;27.18;100505.66;1606941;87;27344;-53
2021/06/06 13:59:47;;;;;;;5.03;2.20;;;;;;;32.03;27.18;100500.64;1617349;87;25472;-51
2021/06/06 14:02:17;;;;;;;3.47;2.15;;;;;;;32.17;26.59;100509.80;1608166;87;25971;-55
2021/06/06 14:04:45;;;;;;;4.60;2.70;;;;;;;32.24;26.17;100501.14;1601512;87;26161;-53
2021/06/06 14:07:12;;;;;;;5.50;3.60;;;;;;;32.27;25.99;100502.27;1603548;87;26200;-55
2021/06/06 14:09:39;;;;;;;4.90;3.62;;;;;;;32.29;26.14;100506.78;1600926;87;29077;-54
2021/06/06 14:12:11;;;;;;;5.70;2.67;;;;;;;32.31;25.94;100500.88;1621484;87;25704;-55
2021/06/06 14:14:38;;;;;;;2.62;2.42;;;;;;;32.22;25.49;100507.81;1611713;87;25804;-54
2021/06/06 14:17:07;;;;;;;3.70;2.47;;;;;;;32.00;25.12;100503.56;1608884;87;25847;-54
2021/06/06 14:19:33;;;;;;;3.85;2.42;;;;;;;31.74;25.18;100496.64;1615160;87;26073;-54
2021/06/06 14:22:01;;;;;;;2.45;1.80;;;;;;;31.59;25.31;100503.31;1601684;87;29578;-54
2021/06/06 14:24:28;;;;;;;4.67;2.55;;;;;;;31.36;25.28;100502.24;1619289;87;26215;-53
2021/06/06 14:26:59;;;;;;;5.08;2.60;;;;;;;31.18;25.50;100509.18;1616243;87;25700;-54
2021/06/06 14:29:26;;;;;;;5.00;2.85;;;;;;;31.01;25.63;100507.72;1635496;86;26341;-53
2021/06/06 14:31:54;;;;;;;2.27;2.02;;;;;;;30.84;25.77;100509.17;1632732;86;25928;-53
2021/06/06 14:34:22;;;;;;;5.78;2.40;;;;;;;30.66;25.93;100511.69;1605794;86;27382;-63
2021/06/06 14:36:49;;;;;;;6.28;2.30;;;;;;;30.46;26.05;100516.03;1618439;86;26470;-62
2021/06/06 14:39:17;;;;;;;4.28;2.70;;;;;;;30.21;25.91;100516.09;1614029;86;25693;-62
2021/06/06 14:41:46;;;;;;;4.28;2.20;;;;;;;29.97;26.03;100512.73;1606075;86;26561;-61
2021/06/06 14:44:13;;;;;;;5.10;2.27;;;;;;;29.79;26.37;100511.16;1605034;85;25831;-62
2021/06/06 14:46:40;;;;;;;2.90;2.20;;;;;;;29.60;26.20;100512.80;1617885;87;27331;-61
2021/06/06 14:49:06;;;;;;;6.45;2.42;;;;;;;29.39;26.33;100516.11;1607761;87;26068;-62
2021/06/06 14:51:36;;;;;;;6.85;2.65;;;;;;;29.15;26.58;100518.20;1617242;86;25884;-62